sensor_id;sensor_type;location;lat;lon;timestamp;P1;durP1;ratioP1;P2;durP2;ratioP2
59193;SDS011;44967;48.598;15.650;2022-09-20T00:00:05;1.83;;;0.90;;
59193;SDS011;44967;48.598;15.650;2022-09-20T00:02:31;0.63;;;0.63;;
59193;SDS011;44967;48.598;15.650;2022-09-20T00:04:57;0.88;;;0.80;;
59193;SDS011;44967;48.598;15.650;2022-09-20T00:07:23;0.82;;;0.80;;
59193;SDS011;44967;48.598;15.650;2022-09-20T00:09:48;1.27;;;0.70;;
59193;SDS011;44967;48.598;15.650;2022-09-20T00:12:14;1.45;;;1.00;;
59193;SDS011;44967;48.598;15.650;2022-09-20T00:14:41;1.52;;;0.80;;
59193;SDS011;44967;48.598;15.650;2022-09-20T00:17:06;0.70;;;0.70;;
59193;SDS011;44967;48.598;15.650;2022-09-20T00:19:32;1.33;;;0.80;;
59193;SDS011;44967;48.598;15.650;2022-09-20T00:21:57;1.05;;;0.70;;
59193;SDS011;44967;48.598;15.650;2022-09-20T00:24:23;0.98;;;0.88;;
59193;SDS011;44967;48.598;15.650;2022-09-20T00:26:49;2.28;;;0.90;;
59193;SDS011;44967;48.598;15.650;2022-09-20T00:29:15;2.47;;;0.80;;
59193;SDS011;44967;48.598;15.650;2022-09-20T00:31:41;1.33;;;0.80;;
59193;SDS011;44967;48.598;15.650;2022-09-20T00:34:07;0.68;;;0.68;;
59193;SDS011;44967;48.598;15.650;2022-09-20T00:36:53;0.80;;;0.70;;
59193;SDS011;44967;48.598;15.650;2022-09-20T00:39:18;0.90;;;0.77;;
59193;SDS011;44967;48.598;15.650;2022-09-20T00:41:44;1.15;;;0.80;;
59193;SDS011;44967;48.598;15.650;2022-09-20T00:50:16;2.15;;;0.80;;
59193;SDS011;44967;48.598;15.650;2022-09-20T00:53:05;3.35;;;0.80;;
59193;SDS011;44967;48.598;15.650;2022-09-20T00:55:55;2.10;;;0.70;;
59193;SDS011;44967;48.598;15.650;2022-09-20T00:58:26;1.35;;;0.73;;
59193;SDS011;44967;48.598;15.650;2022-09-20T01:00:54;2.10;;;0.80;;
59193;SDS011;44967;48.598;15.650;2022-09-20T01:03:23;1.27;;;0.77;;
59193;SDS011;44967;48.598;15.650;2022-09-20T01:05:56;3.20;;;0.85;;
59193;SDS011;44967;48.598;15.650;2022-09-20T01:08:25;1.10;;;0.77;;
59193;SDS011;44967;48.598;15.650;2022-09-20T01:10:51;1.20;;;1.10;;
59193;SDS011;44967;48.598;15.650;2022-09-20T01:13:17;1.35;;;0.80;;
59193;SDS011;44967;48.598;15.650;2022-09-20T01:15:43;1.98;;;1.00;;
59193;SDS011;44967;48.598;15.650;2022-09-20T01:18:12;1.08;;;0.80;;
59193;SDS011;44967;48.598;15.650;2022-09-20T01:20:41;1.10;;;0.95;;
59193;SDS011;44967;48.598;15.650;2022-09-20T01:28:25;4.25;;;3.40;;
59193;SDS011;44967;48.598;15.650;2022-09-20T01:30:58;6.55;;;4.07;;
59193;SDS011;44967;48.598;15.650;2022-09-20T01:33:58;7.82;;;5.65;;
59193;SDS011;44967;48.598;15.650;2022-09-20T01:41:44;5.75;;;4.78;;
59193;SDS011;44967;48.598;15.650;2022-09-20T01:47:46;3.40;;;1.90;;
59193;SDS011;44967;48.598;15.650;2022-09-20T02:04:19;4.80;;;1.55;;
59193;SDS011;44967;48.598;15.650;2022-09-20T02:06:59;2.25;;;1.20;;
59193;SDS011;44967;48.598;15.650;2022-09-20T02:12:27;1.90;;;1.50;;
59193;SDS011;44967;48.598;15.650;2022-09-20T02:39:35;0.40;;;0.40;;
59193;SDS011;44967;48.598;15.650;2022-09-20T02:42:12;1.65;;;0.40;;
59193;SDS011;44967;48.598;15.650;2022-09-20T02:44:51;0.30;;;0.30;;
59193;SDS011;44967;48.598;15.650;2022-09-20T02:47:40;0.38;;;0.38;;
59193;SDS011;44967;48.598;15.650;2022-09-20T02:50:12;0.30;;;0.30;;
59193;SDS011;44967;48.598;15.650;2022-09-20T03:01:45;0.25;;;0.25;;
59193;SDS011;44967;48.598;15.650;2022-09-20T03:04:19;0.65;;;0.20;;
59193;SDS011;44967;48.598;15.650;2022-09-20T03:07:11;0.82;;;0.50;;
59193;SDS011;44967;48.598;15.650;2022-09-20T03:10:05;1.00;;;0.40;;
59193;SDS011;44967;48.598;15.650;2022-09-20T03:18:05;0.55;;;0.32;;
59193;SDS011;44967;48.598;15.650;2022-09-20T03:29:12;0.25;;;0.25;;
59193;SDS011;44967;48.598;15.650;2022-09-20T03:34:40;0.93;;;0.30;;
59193;SDS011;44967;48.598;15.650;2022-09-20T03:37:24;0.90;;;0.30;;
59193;SDS011;44967;48.598;15.650;2022-09-20T03:43:03;1.08;;;0.35;;
59193;SDS011;44967;48.598;15.650;2022-09-20T04:04:48;0.98;;;0.75;;
59193;SDS011;44967;48.598;15.650;2022-09-20T04:10:12;0.38;;;0.30;;
59193;SDS011;44967;48.598;15.650;2022-09-20T04:15:45;0.30;;;0.30;;
59193;SDS011;44967;48.598;15.650;2022-09-20T04:18:36;0.60;;;0.37;;
59193;SDS011;44967;48.598;15.650;2022-09-20T04:21:19;0.52;;;0.40;;
59193;SDS011;44967;48.598;15.650;2022-09-20T04:26:58;0.20;;;0.20;;
59193;SDS011;44967;48.598;15.650;2022-09-20T04:29:30;1.25;;;0.25;;
59193;SDS011;44967;48.598;15.650;2022-09-20T04:34:56;0.30;;;0.30;;
59193;SDS011;44967;48.598;15.650;2022-09-20T04:38:01;0.47;;;0.30;;
59193;SDS011;44967;48.598;15.650;2022-09-20T04:40:42;0.70;;;0.40;;
59193;SDS011;44967;48.598;15.650;2022-09-20T04:46:45;0.40;;;0.30;;
59193;SDS011;44967;48.598;15.650;2022-09-20T04:55:44;0.93;;;0.40;;
59193;SDS011;44967;48.598;15.650;2022-09-20T05:18:25;1.27;;;0.60;;
59193;SDS011;44967;48.598;15.650;2022-09-20T05:21:22;0.57;;;0.57;;
59193;SDS011;44967;48.598;15.650;2022-09-20T05:30:04;1.90;;;0.50;;
59193;SDS011;44967;48.598;15.650;2022-09-20T05:32:50;0.68;;;0.60;;
59193;SDS011;44967;48.598;15.650;2022-09-20T05:36:12;0.57;;;0.50;;
59193;SDS011;44967;48.598;15.650;2022-09-20T05:41:07;1.40;;;0.73;;
59193;SDS011;44967;48.598;15.650;2022-09-20T05:46:33;0.77;;;0.45;;
59193;SDS011;44967;48.598;15.650;2022-09-20T05:49:15;1.65;;;0.50;;
59193;SDS011;44967;48.598;15.650;2022-09-20T05:51:58;0.88;;;0.30;;
59193;SDS011;44967;48.598;15.650;2022-09-20T06:05:53;0.73;;;0.38;;
59193;SDS011;44967;48.598;15.650;2022-09-20T06:08:44;1.95;;;0.55;;
59193;SDS011;44967;48.598;15.650;2022-09-20T06:14:34;2.42;;;0.68;;
59193;SDS011;44967;48.598;15.650;2022-09-20T06:19:49;1.58;;;0.50;;
59193;SDS011;44967;48.598;15.650;2022-09-20T06:22:24;1.63;;;0.50;;
59193;SDS011;44967;48.598;15.650;2022-09-20T06:27:32;1.63;;;0.70;;
59193;SDS011;44967;48.598;15.650;2022-09-20T06:30:04;1.17;;;0.60;;
59193;SDS011;44967;48.598;15.650;2022-09-20T06:32:51;2.20;;;0.63;;
59193;SDS011;44967;48.598;15.650;2022-09-20T06:35:22;1.73;;;0.63;;
59193;SDS011;44967;48.598;15.650;2022-09-20T06:37:59;5.93;;;0.93;;
59193;SDS011;44967;48.598;15.650;2022-09-20T06:41:08;1.27;;;0.60;;
59193;SDS011;44967;48.598;15.650;2022-09-20T06:43:54;2.08;;;0.73;;
59193;SDS011;44967;48.598;15.650;2022-09-20T06:46:26;1.52;;;0.68;;
59193;SDS011;44967;48.598;15.650;2022-09-20T06:48:54;0.60;;;0.32;;
59193;SDS011;44967;48.598;15.650;2022-09-20T06:51:21;0.50;;;0.50;;
59193;SDS011;44967;48.598;15.650;2022-09-20T06:53:49;2.15;;;0.70;;
59193;SDS011;44967;48.598;15.650;2022-09-20T06:56:16;2.05;;;0.70;;
59193;SDS011;44967;48.598;15.650;2022-09-20T06:58:45;1.75;;;0.95;;
59193;SDS011;44967;48.598;15.650;2022-09-20T07:01:11;0.73;;;0.60;;
59193;SDS011;44967;48.598;15.650;2022-09-20T07:03:41;3.80;;;0.80;;
59193;SDS011;44967;48.598;15.650;2022-09-20T07:06:07;2.15;;;0.70;;
59193;SDS011;44967;48.598;15.650;2022-09-20T07:08:33;4.22;;;0.90;;
59193;SDS011;44967;48.598;15.650;2022-09-20T07:11:06;2.15;;;0.70;;
59193;SDS011;44967;48.598;15.650;2022-09-20T07:13:37;0.60;;;0.60;;
59193;SDS011;44967;48.598;15.650;2022-09-20T07:16:03;2.35;;;0.70;;
59193;SDS011;44967;48.598;15.650;2022-09-20T07:18:31;2.17;;;0.90;;
59193;SDS011;44967;48.598;15.650;2022-09-20T07:20:58;1.48;;;0.70;;
59193;SDS011;44967;48.598;15.650;2022-09-20T07:23:27;0.65;;;0.60;;
59193;SDS011;44967;48.598;15.650;2022-09-20T07:25:56;1.70;;;0.73;;
59193;SDS011;44967;48.598;15.650;2022-09-20T07:28:25;2.75;;;0.68;;
59193;SDS011;44967;48.598;15.650;2022-09-20T07:30:55;0.90;;;0.63;;
59193;SDS011;44967;48.598;15.650;2022-09-20T07:33:21;2.90;;;0.77;;
59193;SDS011;44967;48.598;15.650;2022-09-20T07:35:52;1.30;;;0.77;;
59193;SDS011;44967;48.598;15.650;2022-09-20T07:38:20;0.73;;;0.60;;
59193;SDS011;44967;48.598;15.650;2022-09-20T07:41:04;2.00;;;0.95;;
59193;SDS011;44967;48.598;15.650;2022-09-20T07:43:31;0.93;;;0.50;;
59193;SDS011;44967;48.598;15.650;2022-09-20T07:45:57;2.65;;;0.75;;
59193;SDS011;44967;48.598;15.650;2022-09-20T07:48:25;1.23;;;0.80;;
59193;SDS011;44967;48.598;15.650;2022-09-20T07:50:54;1.27;;;0.52;;
59193;SDS011;44967;48.598;15.650;2022-09-20T07:53:21;0.90;;;0.45;;
59193;SDS011;44967;48.598;15.650;2022-09-20T07:56:04;1.05;;;0.80;;
59193;SDS011;44967;48.598;15.650;2022-09-20T07:58:32;3.72;;;0.70;;
59193;SDS011;44967;48.598;15.650;2022-09-20T08:01:00;2.20;;;0.60;;
59193;SDS011;44967;48.598;15.650;2022-09-20T08:03:28;1.27;;;0.50;;
59193;SDS011;44967;48.598;15.650;2022-09-20T08:05:58;1.92;;;0.73;;
59193;SDS011;44967;48.598;15.650;2022-09-20T08:08:33;0.50;;;0.50;;
59193;SDS011;44967;48.598;15.650;2022-09-20T08:11:01;1.50;;;0.65;;
59193;SDS011;44967;48.598;15.650;2022-09-20T08:13:29;2.00;;;0.80;;
59193;SDS011;44967;48.598;15.650;2022-09-20T08:16:02;2.40;;;0.82;;
59193;SDS011;44967;48.598;15.650;2022-09-20T08:18:29;2.00;;;0.60;;
59193;SDS011;44967;48.598;15.650;2022-09-20T08:20:55;0.45;;;0.45;;
59193;SDS011;44967;48.598;15.650;2022-09-20T08:23:21;1.65;;;0.82;;
59193;SDS011;44967;48.598;15.650;2022-09-20T08:25:47;1.40;;;0.80;;
59193;SDS011;44967;48.598;15.650;2022-09-20T08:28:14;2.13;;;0.80;;
59193;SDS011;44967;48.598;15.650;2022-09-20T08:30:39;2.65;;;0.88;;
59193;SDS011;44967;48.598;15.650;2022-09-20T08:33:05;0.82;;;0.80;;
59193;SDS011;44967;48.598;15.650;2022-09-20T08:35:34;5.50;;;0.77;;
59193;SDS011;44967;48.598;15.650;2022-09-20T08:38:01;2.40;;;1.02;;
59193;SDS011;44967;48.598;15.650;2022-09-20T08:40:26;5.03;;;2.10;;
59193;SDS011;44967;48.598;15.650;2022-09-20T08:42:54;1.45;;;0.90;;
59193;SDS011;44967;48.598;15.650;2022-09-20T08:45:22;1.00;;;0.73;;
59193;SDS011;44967;48.598;15.650;2022-09-20T08:47:54;2.08;;;0.50;;
59193;SDS011;44967;48.598;15.650;2022-09-20T08:50:23;1.65;;;0.43;;
59193;SDS011;44967;48.598;15.650;2022-09-20T08:52:51;1.58;;;0.52;;
59193;SDS011;44967;48.598;15.650;2022-09-20T08:55:24;0.85;;;0.57;;
59193;SDS011;44967;48.598;15.650;2022-09-20T08:57:57;1.08;;;0.50;;
59193;SDS011;44967;48.598;15.650;2022-09-20T09:00:25;2.45;;;0.60;;
59193;SDS011;44967;48.598;15.650;2022-09-20T09:02:56;3.55;;;0.50;;
59193;SDS011;44967;48.598;15.650;2022-09-20T09:07:59;0.80;;;0.45;;
59193;SDS011;44967;48.598;15.650;2022-09-20T09:10:32;0.52;;;0.47;;
59193;SDS011;44967;48.598;15.650;2022-09-20T09:13:02;1.45;;;0.52;;
59193;SDS011;44967;48.598;15.650;2022-09-20T09:15:31;1.48;;;0.63;;
59193;SDS011;44967;48.598;15.650;2022-09-20T09:17:59;2.00;;;0.40;;
59193;SDS011;44967;48.598;15.650;2022-09-20T09:20:25;1.85;;;0.52;;
59193;SDS011;44967;48.598;15.650;2022-09-20T09:23:01;1.27;;;0.40;;
59193;SDS011;44967;48.598;15.650;2022-09-20T09:25:34;2.03;;;0.52;;
59193;SDS011;44967;48.598;15.650;2022-09-20T09:30:52;0.40;;;0.40;;
59193;SDS011;44967;48.598;15.650;2022-09-20T09:36:03;1.70;;;0.55;;
59193;SDS011;44967;48.598;15.650;2022-09-20T09:38:34;0.43;;;0.40;;
59193;SDS011;44967;48.598;15.650;2022-09-20T09:41:03;1.40;;;0.40;;
59193;SDS011;44967;48.598;15.650;2022-09-20T09:43:31;1.48;;;0.70;;
59193;SDS011;44967;48.598;15.650;2022-09-20T09:46:18;1.27;;;0.52;;
59193;SDS011;44967;48.598;15.650;2022-09-20T09:48:46;0.82;;;0.40;;
59193;SDS011;44967;48.598;15.650;2022-09-20T09:51:29;1.70;;;0.90;;
59193;SDS011;44967;48.598;15.650;2022-09-20T09:53:56;1.17;;;0.88;;
59193;SDS011;44967;48.598;15.650;2022-09-20T09:56:34;1.92;;;0.75;;
59193;SDS011;44967;48.598;15.650;2022-09-20T10:04:42;2.47;;;0.70;;
59193;SDS011;44967;48.598;15.650;2022-09-20T10:07:19;1.77;;;0.80;;
59193;SDS011;44967;48.598;15.650;2022-09-20T10:12:49;1.58;;;0.50;;
59193;SDS011;44967;48.598;15.650;2022-09-20T10:15:54;0.95;;;0.60;;
59193;SDS011;44967;48.598;15.650;2022-09-20T10:24:23;2.08;;;0.70;;
59193;SDS011;44967;48.598;15.650;2022-09-20T10:35:31;1.48;;;0.60;;
59193;SDS011;44967;48.598;15.650;2022-09-20T10:38:17;2.03;;;0.60;;
59193;SDS011;44967;48.598;15.650;2022-09-20T10:49:19;0.55;;;0.55;;
59193;SDS011;44967;48.598;15.650;2022-09-20T11:00:57;0.75;;;0.30;;
59193;SDS011;44967;48.598;15.650;2022-09-20T11:09:21;0.95;;;0.30;;
59193;SDS011;44967;48.598;15.650;2022-09-20T11:11:52;0.75;;;0.47;;
59193;SDS011;44967;48.598;15.650;2022-09-20T11:14:34;0.63;;;0.50;;
59193;SDS011;44967;48.598;15.650;2022-09-20T11:20:21;0.75;;;0.50;;
59193;SDS011;44967;48.598;15.650;2022-09-20T11:22:57;1.05;;;0.43;;
59193;SDS011;44967;48.598;15.650;2022-09-20T11:25:31;1.05;;;0.50;;
59193;SDS011;44967;48.598;15.650;2022-09-20T11:28:06;1.55;;;0.45;;
59193;SDS011;44967;48.598;15.650;2022-09-20T11:30:39;0.70;;;0.50;;
59193;SDS011;44967;48.598;15.650;2022-09-20T11:33:18;1.55;;;0.38;;
59193;SDS011;44967;48.598;15.650;2022-09-20T11:35:52;0.60;;;0.60;;
59193;SDS011;44967;48.598;15.650;2022-09-20T11:38:34;0.75;;;0.28;;
59193;SDS011;44967;48.598;15.650;2022-09-20T11:41:41;0.52;;;0.40;;
59193;SDS011;44967;48.598;15.650;2022-09-20T11:44:04;0.32;;;0.32;;
59193;SDS011;44967;48.598;15.650;2022-09-20T11:46:37;0.30;;;0.30;;
59193;SDS011;44967;48.598;15.650;2022-09-20T11:49:41;2.22;;;0.80;;
59193;SDS011;44967;48.598;15.650;2022-09-20T11:56:01;0.45;;;0.30;;
59193;SDS011;44967;48.598;15.650;2022-09-20T11:58:16;0.52;;;0.30;;
59193;SDS011;44967;48.598;15.650;2022-09-20T12:00:50;0.40;;;0.40;;
59193;SDS011;44967;48.598;15.650;2022-09-20T12:06:06;0.40;;;0.40;;
59193;SDS011;44967;48.598;15.650;2022-09-20T12:08:45;1.17;;;0.40;;
59193;SDS011;44967;48.598;15.650;2022-09-20T12:11:15;0.47;;;0.20;;
59193;SDS011;44967;48.598;15.650;2022-09-20T12:13:51;0.40;;;0.22;;
59193;SDS011;44967;48.598;15.650;2022-09-20T12:19:10;0.57;;;0.30;;
59193;SDS011;44967;48.598;15.650;2022-09-20T12:26:54;0.68;;;0.20;;
59193;SDS011;44967;48.598;15.650;2022-09-20T12:39:20;0.65;;;0.25;;
59193;SDS011;44967;48.598;15.650;2022-09-20T12:47:24;0.20;;;0.20;;
59193;SDS011;44967;48.598;15.650;2022-09-20T12:49:53;0.70;;;0.17;;
59193;SDS011;44967;48.598;15.650;2022-09-20T12:57:57;1.08;;;0.30;;
59193;SDS011;44967;48.598;15.650;2022-09-20T13:11:28;0.73;;;0.20;;
59193;SDS011;44967;48.598;15.650;2022-09-20T13:14:01;0.20;;;0.20;;
59193;SDS011;44967;48.598;15.650;2022-09-20T13:19:05;0.10;;;0.10;;
59193;SDS011;44967;48.598;15.650;2022-09-20T13:21:40;0.30;;;0.30;;
59193;SDS011;44967;48.598;15.650;2022-09-20T13:24:14;0.10;;;0.10;;
59193;SDS011;44967;48.598;15.650;2022-09-20T13:26:45;0.10;;;0.10;;
59193;SDS011;44967;48.598;15.650;2022-09-20T13:29:46;0.20;;;0.20;;
59193;SDS011;44967;48.598;15.650;2022-09-20T13:32:21;0.20;;;0.20;;
59193;SDS011;44967;48.598;15.650;2022-09-20T13:37:31;2.45;;;0.65;;
59193;SDS011;44967;48.598;15.650;2022-09-20T13:39:57;0.10;;;0.10;;
59193;SDS011;44967;48.598;15.650;2022-09-20T13:42:23;0.20;;;0.20;;
59193;SDS011;44967;48.598;15.650;2022-09-20T13:44:53;0.20;;;0.20;;
59193;SDS011;44967;48.598;15.650;2022-09-20T13:47:22;0.40;;;0.20;;
59193;SDS011;44967;48.598;15.650;2022-09-20T13:49:49;1.67;;;0.32;;
59193;SDS011;44967;48.598;15.650;2022-09-20T13:52:25;0.43;;;0.32;;
59193;SDS011;44967;48.598;15.650;2022-09-20T13:54:52;0.32;;;0.20;;
59193;SDS011;44967;48.598;15.650;2022-09-20T13:57:25;0.77;;;0.30;;
59193;SDS011;44967;48.598;15.650;2022-09-20T13:59:52;0.20;;;0.20;;
59193;SDS011;44967;48.598;15.650;2022-09-20T14:04:55;0.30;;;0.20;;
59193;SDS011;44967;48.598;15.650;2022-09-20T14:07:24;1.23;;;0.30;;
59193;SDS011;44967;48.598;15.650;2022-09-20T14:09:52;0.43;;;0.40;;
59193;SDS011;44967;48.598;15.650;2022-09-20T14:12:19;1.52;;;0.30;;
59193;SDS011;44967;48.598;15.650;2022-09-20T14:14:47;0.30;;;0.30;;
59193;SDS011;44967;48.598;15.650;2022-09-20T14:17:14;0.98;;;0.35;;
59193;SDS011;44967;48.598;15.650;2022-09-20T14:19:44;0.30;;;0.20;;
59193;SDS011;44967;48.598;15.650;2022-09-20T14:22:15;0.30;;;0.30;;
59193;SDS011;44967;48.598;15.650;2022-09-20T14:24:54;1.08;;;0.22;;
59193;SDS011;44967;48.598;15.650;2022-09-20T14:27:24;0.38;;;0.30;;
59193;SDS011;44967;48.598;15.650;2022-09-20T14:29:50;0.98;;;0.30;;
59193;SDS011;44967;48.598;15.650;2022-09-20T14:34:49;1.90;;;0.40;;
59193;SDS011;44967;48.598;15.650;2022-09-20T14:37:30;1.30;;;0.45;;
59193;SDS011;44967;48.598;15.650;2022-09-20T14:40:13;1.17;;;0.32;;
59193;SDS011;44967;48.598;15.650;2022-09-20T14:42:59;0.95;;;0.40;;
59193;SDS011;44967;48.598;15.650;2022-09-20T14:45:30;0.63;;;0.30;;
59193;SDS011;44967;48.598;15.650;2022-09-20T14:48:04;1.48;;;0.40;;
59193;SDS011;44967;48.598;15.650;2022-09-20T14:56:33;1.03;;;0.37;;
59193;SDS011;44967;48.598;15.650;2022-09-20T14:59:05;0.40;;;0.40;;
59193;SDS011;44967;48.598;15.650;2022-09-20T15:01:44;1.90;;;0.40;;
59193;SDS011;44967;48.598;15.650;2022-09-20T15:04:20;0.77;;;0.60;;
59193;SDS011;44967;48.598;15.650;2022-09-20T15:06:48;2.20;;;0.60;;
59193;SDS011;44967;48.598;15.650;2022-09-20T15:09:14;0.77;;;0.60;;
59193;SDS011;44967;48.598;15.650;2022-09-20T15:11:42;5.47;;;0.63;;
59193;SDS011;44967;48.598;15.650;2022-09-20T15:14:08;1.83;;;0.50;;
59193;SDS011;44967;48.598;15.650;2022-09-20T15:16:33;1.13;;;0.65;;
59193;SDS011;44967;48.598;15.650;2022-09-20T15:18:59;1.13;;;0.45;;
59193;SDS011;44967;48.598;15.650;2022-09-20T15:21:25;2.13;;;0.50;;
59193;SDS011;44967;48.598;15.650;2022-09-20T15:23:51;1.55;;;0.45;;
59193;SDS011;44967;48.598;15.650;2022-09-20T15:26:20;1.42;;;0.30;;
59193;SDS011;44967;48.598;15.650;2022-09-20T15:28:46;0.73;;;0.60;;
59193;SDS011;44967;48.598;15.650;2022-09-20T15:31:12;0.82;;;0.70;;
59193;SDS011;44967;48.598;15.650;2022-09-20T15:33:39;1.70;;;0.30;;
59193;SDS011;44967;48.598;15.650;2022-09-20T15:36:05;0.70;;;0.43;;
59193;SDS011;44967;48.598;15.650;2022-09-20T15:38:32;0.30;;;0.30;;
59193;SDS011;44967;48.598;15.650;2022-09-20T15:41:01;0.52;;;0.32;;
59193;SDS011;44967;48.598;15.650;2022-09-20T15:43:28;1.02;;;0.40;;
59193;SDS011;44967;48.598;15.650;2022-09-20T15:48:59;2.83;;;0.68;;
59193;SDS011;44967;48.598;15.650;2022-09-20T15:51:27;1.42;;;0.60;;
59193;SDS011;44967;48.598;15.650;2022-09-20T15:54:01;0.80;;;0.40;;
59193;SDS011;44967;48.598;15.650;2022-09-20T15:56:29;0.45;;;0.40;;
59193;SDS011;44967;48.598;15.650;2022-09-20T15:58:58;0.40;;;0.40;;
59193;SDS011;44967;48.598;15.650;2022-09-20T16:01:35;0.40;;;0.40;;
59193;SDS011;44967;48.598;15.650;2022-09-20T16:04:13;0.52;;;0.40;;
59193;SDS011;44967;48.598;15.650;2022-09-20T16:06:41;1.02;;;0.40;;
59193;SDS011;44967;48.598;15.650;2022-09-20T16:09:08;0.30;;;0.30;;
59193;SDS011;44967;48.598;15.650;2022-09-20T16:11:34;0.38;;;0.30;;
59193;SDS011;44967;48.598;15.650;2022-09-20T16:14:00;0.52;;;0.30;;
59193;SDS011;44967;48.598;15.650;2022-09-20T16:16:26;0.30;;;0.30;;
59193;SDS011;44967;48.598;15.650;2022-09-20T16:18:53;0.38;;;0.30;;
59193;SDS011;44967;48.598;15.650;2022-09-20T16:21:39;2.28;;;0.40;;
59193;SDS011;44967;48.598;15.650;2022-09-20T16:24:06;0.30;;;0.30;;
59193;SDS011;44967;48.598;15.650;2022-09-20T16:26:33;1.17;;;0.30;;
59193;SDS011;44967;48.598;15.650;2022-09-20T16:29:00;0.30;;;0.28;;
59193;SDS011;44967;48.598;15.650;2022-09-20T16:31:35;0.55;;;0.32;;
59193;SDS011;44967;48.598;15.650;2022-09-20T16:34:15;1.63;;;0.60;;
59193;SDS011;44967;48.598;15.650;2022-09-20T16:39:12;1.65;;;0.60;;
59193;SDS011;44967;48.598;15.650;2022-09-20T16:41:39;0.98;;;0.50;;
59193;SDS011;44967;48.598;15.650;2022-09-20T16:44:04;1.02;;;0.95;;
59193;SDS011;44967;48.598;15.650;2022-09-20T16:46:31;1.88;;;1.05;;
59193;SDS011;44967;48.598;15.650;2022-09-20T16:49:02;2.28;;;1.00;;
59193;SDS011;44967;48.598;15.650;2022-09-20T16:51:33;2.03;;;0.63;;
59193;SDS011;44967;48.598;15.650;2022-09-20T16:54:01;0.93;;;0.60;;
59193;SDS011;44967;48.598;15.650;2022-09-20T16:56:30;2.28;;;0.70;;
59193;SDS011;44967;48.598;15.650;2022-09-20T16:59:00;0.85;;;0.50;;
59193;SDS011;44967;48.598;15.650;2022-09-20T17:01:27;2.45;;;0.68;;
59193;SDS011;44967;48.598;15.650;2022-09-20T17:03:53;4.07;;;0.73;;
59193;SDS011;44967;48.598;15.650;2022-09-20T17:06:19;2.92;;;0.50;;
59193;SDS011;44967;48.598;15.650;2022-09-20T17:08:45;2.70;;;1.17;;
59193;SDS011;44967;48.598;15.650;2022-09-20T17:11:13;2.85;;;0.90;;
59193;SDS011;44967;48.598;15.650;2022-09-20T17:13:41;1.55;;;1.00;;
59193;SDS011;44967;48.598;15.650;2022-09-20T17:16:12;1.48;;;0.75;;
59193;SDS011;44967;48.598;15.650;2022-09-20T17:18:40;1.27;;;0.98;;
59193;SDS011;44967;48.598;15.650;2022-09-20T17:21:10;0.50;;;0.50;;
59193;SDS011;44967;48.598;15.650;2022-09-20T17:23:38;2.15;;;0.75;;
59193;SDS011;44967;48.598;15.650;2022-09-20T17:26:07;1.77;;;0.93;;
59193;SDS011;44967;48.598;15.650;2022-09-20T17:28:43;3.00;;;0.85;;
59193;SDS011;44967;48.598;15.650;2022-09-20T17:31:13;2.72;;;1.05;;
59193;SDS011;44967;48.598;15.650;2022-09-20T17:33:40;3.45;;;1.13;;
59193;SDS011;44967;48.598;15.650;2022-09-20T17:36:07;2.67;;;1.08;;
59193;SDS011;44967;48.598;15.650;2022-09-20T17:38:36;1.45;;;1.00;;
59193;SDS011;44967;48.598;15.650;2022-09-20T17:41:09;2.03;;;0.80;;
59193;SDS011;44967;48.598;15.650;2022-09-20T17:43:38;2.40;;;0.80;;
59193;SDS011;44967;48.598;15.650;2022-09-20T17:46:05;1.05;;;0.63;;
59193;SDS011;44967;48.598;15.650;2022-09-20T17:48:32;0.75;;;0.57;;
59193;SDS011;44967;48.598;15.650;2022-09-20T17:51:01;0.60;;;0.60;;
59193;SDS011;44967;48.598;15.650;2022-09-20T17:53:28;1.30;;;0.63;;
59193;SDS011;44967;48.598;15.650;2022-09-20T17:55:59;0.75;;;0.60;;
59193;SDS011;44967;48.598;15.650;2022-09-20T17:58:25;3.78;;;0.82;;
59193;SDS011;44967;48.598;15.650;2022-09-20T18:00:51;0.85;;;0.70;;
59193;SDS011;44967;48.598;15.650;2022-09-20T18:03:21;3.13;;;0.70;;
59193;SDS011;44967;48.598;15.650;2022-09-20T18:05:50;2.22;;;0.73;;
59193;SDS011;44967;48.598;15.650;2022-09-20T18:08:16;1.85;;;0.70;;
59193;SDS011;44967;48.598;15.650;2022-09-20T18:10:52;0.95;;;0.60;;
59193;SDS011;44967;48.598;15.650;2022-09-20T18:13:19;1.52;;;0.60;;
59193;SDS011;44967;48.598;15.650;2022-09-20T18:15:44;1.27;;;0.50;;
59193;SDS011;44967;48.598;15.650;2022-09-20T18:18:10;0.65;;;0.45;;
59193;SDS011;44967;48.598;15.650;2022-09-20T18:20:36;1.50;;;0.60;;
59193;SDS011;44967;48.598;15.650;2022-09-20T18:23:03;1.85;;;0.85;;
59193;SDS011;44967;48.598;15.650;2022-09-20T18:25:29;1.17;;;0.90;;
59193;SDS011;44967;48.598;15.650;2022-09-20T18:28:15;0.70;;;0.50;;
59193;SDS011;44967;48.598;15.650;2022-09-20T18:30:42;1.15;;;0.80;;
59193;SDS011;44967;48.598;15.650;2022-09-20T18:33:10;1.08;;;0.70;;
59193;SDS011;44967;48.598;15.650;2022-09-20T18:35:38;0.90;;;0.70;;
59193;SDS011;44967;48.598;15.650;2022-09-20T18:38:06;2.13;;;0.77;;
59193;SDS011;44967;48.598;15.650;2022-09-20T18:40:36;0.98;;;0.70;;
59193;SDS011;44967;48.598;15.650;2022-09-20T18:43:02;2.25;;;0.80;;
59193;SDS011;44967;48.598;15.650;2022-09-20T18:45:29;0.65;;;0.55;;
59193;SDS011;44967;48.598;15.650;2022-09-20T18:47:55;1.10;;;1.00;;
59193;SDS011;44967;48.598;15.650;2022-09-20T18:50:22;1.60;;;0.90;;
59193;SDS011;44967;48.598;15.650;2022-09-20T18:52:51;1.65;;;0.93;;
59193;SDS011;44967;48.598;15.650;2022-09-20T18:55:17;2.70;;;1.15;;
59193;SDS011;44967;48.598;15.650;2022-09-20T18:57:43;1.08;;;0.70;;
59193;SDS011;44967;48.598;15.650;2022-09-20T19:00:10;1.88;;;0.95;;
59193;SDS011;44967;48.598;15.650;2022-09-20T19:05:26;1.13;;;1.00;;
59193;SDS011;44967;48.598;15.650;2022-09-20T19:08:48;0.68;;;0.60;;
59193;SDS011;44967;48.598;15.650;2022-09-20T19:11:03;1.10;;;0.77;;
59193;SDS011;44967;48.598;15.650;2022-09-20T19:13:52;1.52;;;0.80;;
59193;SDS011;44967;48.598;15.650;2022-09-20T19:16:28;1.25;;;0.90;;
59193;SDS011;44967;48.598;15.650;2022-09-20T19:24:54;0.60;;;0.50;;
59193;SDS011;44967;48.598;15.650;2022-09-20T19:27:28;1.40;;;0.75;;
59193;SDS011;44967;48.598;15.650;2022-09-20T19:29:53;0.90;;;0.63;;
59193;SDS011;44967;48.598;15.650;2022-09-20T19:32:19;3.65;;;0.82;;
59193;SDS011;44967;48.598;15.650;2022-09-20T19:34:50;3.22;;;1.15;;
59193;SDS011;44967;48.598;15.650;2022-09-20T19:45:44;1.83;;;0.82;;
59193;SDS011;44967;48.598;15.650;2022-09-20T19:51:04;1.35;;;0.80;;
59193;SDS011;44967;48.598;15.650;2022-09-20T19:53:35;2.13;;;1.00;;
59193;SDS011;44967;48.598;15.650;2022-09-20T19:58:52;2.78;;;0.93;;
59193;SDS011;44967;48.598;15.650;2022-09-20T20:01:19;2.60;;;0.95;;
59193;SDS011;44967;48.598;15.650;2022-09-20T20:03:53;1.55;;;0.77;;
59193;SDS011;44967;48.598;15.650;2022-09-20T20:09:09;1.15;;;0.80;;
59193;SDS011;44967;48.598;15.650;2022-09-20T20:25:40;1.88;;;1.27;;
59193;SDS011;44967;48.598;15.650;2022-09-20T20:28:11;1.33;;;1.00;;
59193;SDS011;44967;48.598;15.650;2022-09-20T20:30:36;1.55;;;0.85;;
59193;SDS011;44967;48.598;15.650;2022-09-20T20:33:02;0.80;;;0.80;;
59193;SDS011;44967;48.598;15.650;2022-09-20T20:35:30;1.30;;;1.13;;
59193;SDS011;44967;48.598;15.650;2022-09-20T20:37:56;2.30;;;1.00;;
59193;SDS011;44967;48.598;15.650;2022-09-20T20:40:22;0.82;;;0.80;;
59193;SDS011;44967;48.598;15.650;2022-09-20T20:42:53;1.25;;;0.88;;
59193;SDS011;44967;48.598;15.650;2022-09-20T20:45:23;1.30;;;1.00;;
59193;SDS011;44967;48.598;15.650;2022-09-20T20:47:49;1.00;;;0.90;;